Terminal Aerodrome Forecast
Issued by NWS

Home | Current Version | Previous Version | Text Only | Print | Product List | Glossary Off
Versions: 1 2 3 4 5 6 7 8 9 10 11 12 13 14 15 16 17 18 19 20 21 22 23 24 25 26

229
FTUS43 KLOT 082142 AAB
TAFORD
TAF AMD
KORD 082142Z 0822/0924 29012KT P6SM -SHSN OVC018
      TEMPO 0823/0824 5SM -SHSN
     FM090200 31012G20KT 4SM -SN BR OVC018
      TEMPO 0905/0909 2SM -SN
     FM091000 32013G21KT P6SM -SHSN OVC025 PROB30 0918/0921 2SM
      -SHSN=

USA.gov is the U.S. government's official web portal to all federal, state and local government web resources and services.